Wednesday, August 15, 2018, 12:51 AM EDT
Back to Local

KAVP, Wilkes-barre/scranton International

Location: Pittston, PA, United States Lat: 41.333
Local Time: 12:51 AM EDT ( 4:51 GMT) Lon: -75.733
Time Zone: US/Eastern Elev: 961 ft

Show me the last for .
Show Decoded

2018-08-15 00:43 METAR KAVP 150443Z 00000KT 8SM SCT009 BKN048 BKN060 19/18 A2992 RMK AO2 RAE07
                 P0000 T01890183 =
2018-08-14 23:54 METAR KAVP 150354Z 00000KT 7SM -RA FEW015 BKN049 OVC060 19/18 A2992 RMK AO2 LTG
                 DSNT NE SLP123 P0019 T01890183 =
2018-08-14 23:39 METAR KAVP 150339Z 00000KT 4SM RA BR SCT016 BKN035 OVC060 19/18 A2991 RMK AO2
                 LTG DSNT N AND NE P0016 T01940178 =
2018-08-14 23:25 METAR KAVP 150325Z 30004KT 3SM RA BR FEW004 BKN020 OVC050 20/18 A2992 RMK AO2
                 LTG DSNT N P0011 T02000183 =
2018-08-14 23:17 METAR KAVP 150317Z 29008KT 4SM +RA BR FEW004 BKN031 OVC045 20/19 A2992 RMK AO2
                 P0007 T02000194 =
2018-08-14 23:10 METAR KAVP 150310Z 28009KT 2SM +RA BR SCT008 BKN026 OVC047 20/19 A2992 RMK AO2
                 LTG DSNT N P0005 T02000194 =
2018-08-14 22:54 METAR KAVP 150254Z 22006KT 5SM RA BR FEW006 BKN029 OVC095 20/19 A2990 RMK AO2
                 LTG DSNT N SLP119 P0010 60067 T02000194 50008 =
2018-08-14 22:35 METAR KAVP 150235Z 22005KT 4SM RA BR SCT006 SCT036 OVC090 20/19 A2990 RMK AO2
                 LTG DSNT N P0008 T02000194 =
2018-08-14 22:15 METAR KAVP 150215Z 20005KT 3SM +RA BR BKN004 BKN035 OVC100 20/20 A2990 RMK AO2
                 LTG DSNT N AND NW P0002 T02000200 =
2018-08-14 22:02 METAR KAVP 150202Z 24005KT 6SM -RA BR BKN006 OVC022 20/19 A2991 =
2018-08-14 21:54 METAR KAVP 150154Z 26005KT 6SM -RA BR SCT008 BKN022 OVC100 20/19 A2991 RMK AO2
                 LTG DSNT N AND NW SLP121 P0057 T02000194 =
2018-08-14 21:40 METAR KAVP 150140Z 26007KT 3SM RA BR SCT010 BKN018 OVC025 20/19 A2990 RMK AO2
                 LTG DSNT N AND NW P0054 T02000194 =
2018-08-14 21:34 METAR KAVP 150134Z 26004KT 2SM +RA BR FEW004 BKN018 OVC025 20/19 A2991 RMK AO2
                 LTG DSNT N AND NW P0051 T02000194 =
2018-08-14 21:20 METAR KAVP 150120Z 00000KT 1SM R04/5000VP6000FT +RA BR SCT005 BKN011 OVC026
                 19/19 A2990 =
2018-08-14 21:05 METAR KAVP 150105Z 27007KT 1 3/4SM +RA BR SCT005 SCT019 OVC028 20/19 A2989 RMK
                 AO2 LTG DSNT N P0004 T02000194 =
2018-08-14 20:54 METAR KAVP 150054Z 22006KT 8SM -RA FEW005 BKN025 OVC042 20/19 A2989 RMK AO2
                 RAB24E34B52 SLP113 P0000 T02000194 =
2018-08-14 20:46 METAR KAVP 150046Z 21005KT 9SM FEW009 BKN033 OVC044 20/19 A2988 RMK AO2 RAB24E34
                 P0000 T02000194 =
2018-08-14 20:40 METAR KAVP 150040Z 21005KT 10SM FEW011 BKN029 OVC037 20/19 A2988 RMK AO2
                 RAB24E34 P0000 T02000194 =
2018-08-14 20:25 METAR KAVP 150025Z 21004KT 9SM -RA FEW013 BKN035 OVC049 20/19 A2989 RMK AO2
                 RAB24 P0000 T02000194 =
2018-08-14 20:09 METAR KAVP 150009Z 20003KT 9SM SCT011 BKN028 OVC050 20/19 A2988 RMK AO2 LTG DSNT
                 NW T02000194 =
2018-08-14 19:54 METAR KAVP 142354Z 23003KT 10SM FEW007 BKN012 OVC038 20/19 A2988 RMK AO2 RAE12
                 SLP111 P0001 60031 T02000194 10239 20200 53008 =
2018-08-14 19:16 METAR KAVP 142316Z 21005KT 10SM OVC013 20/19 A2987 RMK AO2 RAE12 P0001 T02000194
                 =
2018-08-14 19:00 METAR KAVP 142300Z 22005KT 6SM -RA BR SCT010 OVC015 20/19 A2987 RMK AO2 P0000
                 T02000194 =
2018-08-14 18:54 METAR KAVP 142254Z 22005KT 4SM -RA BR BKN013 OVC018 20/19 A2987 RMK AO2 RAE00B18
                 SLP107 P0004 T02000194 =
2018-08-14 18:34 METAR KAVP 142234Z 23007KT 8SM -RA BKN012 BKN049 20/19 A2986 RMK AO2 RAE00B18
                 P0000 T02000189 =
2018-08-14 18:21 METAR KAVP 142221Z 23007KT 10SM -RA SCT016 SCT036 BKN049 20/19 A2986 RMK AO2
                 RAE00B18 P0000 T02000189 =
2018-08-14 18:11 METAR KAVP 142211Z 20004KT 10SM FEW009 BKN022 OVC049 20/19 A2986 RMK AO2 RAE00
                 P0000 T02000194 =
2018-08-14 17:54 METAR KAVP 142154Z 23006KT 10SM -RA FEW005 BKN011 OVC035 20/19 A2986 RMK AO2
                 RAE39B47 SLP105 P0015 T02000194 =
2018-08-14 17:42 METAR KAVP 142142Z 23006KT 10SM SCT005 BKN021 OVC036 20/19 A2986 RMK AO2 RAE39
                 P0015 T02000194 =
2018-08-14 17:28 METAR KAVP 142128Z 24006KT 3SM RA BR SCT005 BKN013 OVC029 21/20 A2985 RMK AO2
                 P0015 T02060200 =
2018-08-14 17:24 METAR KAVP 142124Z 25006KT 2SM RA BR BKN007 BKN023 OVC047 21/20 A2985 RMK AO2
                 P0014 T02060200 =
2018-08-14 17:19 METAR KAVP 142119Z 26006KT 1 3/4SM +RA BR SCT007 BKN016 OVC070 21/20 A2985 RMK
                 AO2 P0011 T02060200 =
2018-08-14 17:12 METAR KAVP 142112Z 28006KT 1 3/4SM +RA BR BKN010 BKN033 OVC048 21/20 A2986 RMK
                 AO2 P0007 T02060200 =
2018-08-14 17:02 METAR KAVP 142102Z 24007KT 2 1/2SM RA BR FEW007 BKN016 OVC085 21/19 A2985 RMK
                 AO2 P0002 T02060194 =
2018-08-14 16:54 METAR KAVP 142054Z 24006KT 2 1/2SM RA BR FEW014 BKN085 OVC110 21/20 A2986 RMK
                 AO2 RAB02 TSB1958E13 SLP102 P0011 60011 T02060200 58001 =
2018-08-14 16:49 METAR KAVP 142049Z 24006KT 2 1/2SM +RA BR FEW014 BKN090 OVC110 21/20 A2986 RMK
                 AO2 RAB02 TSB1958E13 P0008 =
2018-08-14 16:19 METAR KAVP 142019Z 22005KT 4SM RA BR FEW023 BKN090 OVC110 21/18 A2986 RMK AO2
                 LTG DSNT SW RAB02 TSB1958E13 P0002 T02060183 =
2018-08-14 16:04 METAR KAVP 142004Z 22008KT 9SM -TSRA FEW016 BKN080 OVC110 22/18 A2986 RMK AO2
                 LTG DSNT SW RAB02 TSB1958 P0000 T02170178 =
2018-08-14 15:54 METAR KAVP 141954Z 23012KT 10SM FEW018 SCT042 BKN080 22/18 A2986 RMK AO2 LTG
                 DSNT NW SLP105 T02220178 =
2018-08-14 15:43 METAR KAVP 141943Z 24011KT 10SM VCTS SCT018 SCT038 BKN110 23/19 A2986 RMK AO2
                 LTG DSNT NW T02280189 =
2018-08-14 14:54 METAR KAVP 141854Z 23008KT 10SM FEW055 OVC110 23/18 A2986 RMK AO2 LTG DSNT SW
                 RAB04E14 SLP103 P0000 T02330183 =
2018-08-14 14:12 METAR KAVP 141812Z 26008KT 10SM -RA FEW017 BKN038 OVC049 23/19 A2988 RMK AO2
                 RAB04 P0000 T02330189 =
2018-08-14 13:54 METAR KAVP 141754Z 24009KT 10SM BKN017 BKN026 OVC110 23/18 A2989 RMK AO2 SLP112
                 60003 T02280183 10228 20200 58005 =
2018-08-14 13:24 METAR KAVP 141724Z 22005KT 10SM BKN016 BKN023 BKN120 22/19 A2989 RMK AO2
                 T02220189 =
2018-08-14 12:54 METAR KAVP 141654Z 25007KT 10SM FEW120 22/19 A2989 RMK AO2 RAE30 SLP114 P0000
                 T02220189 =
2018-08-14 11:54 METAR KAVP 141554Z 23007KT 7SM -RA SCT029 BKN035 OVC055 21/18 A2991 RMK AO2
                 RAB06 SLP120 P0001 T02060183 =
2018-08-14 11:41 METAR KAVP 141541Z 23007KT 7SM -RA SCT017 BKN035 OVC100 21/18 A2990 RMK AO2
                 RAB06 P0000 T02060183 =
2018-08-14 10:54 METAR KAVP 141454Z VRB05KT 10SM FEW010 BKN016 OVC036 21/19 A2990 RMK AO2
                 RAB12E39 SLP118 P0000 60002 T02110189 55000 =
2018-08-14 09:54 METAR KAVP 141354Z 24006KT 10SM FEW012 BKN018 OVC060 20/19 A2989 RMK AO2
                 RAB08E47 SLP116 P0002 T02000194 =
2018-08-14 09:22 METAR KAVP 141322Z 21006KT 5SM -RA BR FEW007 BKN047 OVC060 20/19 A2990 RMK AO2
                 RAB08 P0001 T02000189 =
2018-08-14 08:54 METAR KAVP 141254Z 22006KT 10SM BKN007 BKN011 OVC025 20/19 A2990 RMK AO2
                 RAB14E43 SLP116 P0000 T02000189 =
2018-08-14 08:47 METAR KAVP 141247Z 22006KT 10SM BKN009 OVC025 20/19 A2990 RMK AO2 RAB14E43 P0000
                 T02000189 =
2018-08-14 08:40 METAR KAVP 141240Z 24007KT 9SM -RA SCT009 BKN025 OVC041 20/19 A2990 RMK AO2 LTG
                 DSNT N RAB14 P0000 T02000189 =
2018-08-14 08:30 METAR KAVP 141230Z 23009KT 10SM -RA BKN009 BKN027 OVC050 20/19 A2990 RMK AO2 LTG
                 DSNT N AND NW RAB14 P0000 T02000194 =
2018-08-14 08:02 METAR KAVP 141202Z 23004KT 9SM SCT005 BKN048 OVC060 21/19 A2990 RMK AO2 LTG DSNT
                 W AND NW T02060194 =
2018-08-14 07:54 METAR KAVP 141154Z 23006KT 9SM SCT003 BKN025 OVC060 21/19 A2990 RMK AO2 LTG DSNT
                 W AND NW SLP118 70416 T02060194 10206 20189 53006 =
2018-08-14 07:34 METAR KAVP 141134Z 24004KT 7SM BKN003 BKN007 OVC030 20/19 A2989 RMK AO2 LTG DSNT
                 N AND NW T02000194 =
2018-08-14 07:23 METAR KAVP 141123Z 28004KT 6SM BR SCT005 BKN009 OVC029 20/19 A2989 RMK AO2 LTG
                 DSNT N AND NW T02000194 =
2018-08-14 07:20 METAR KAVP 141120Z 29004KT 7SM SCT007 SCT013 OVC029 20/19 A2989 RMK AO2 LTG DSNT
                 NW-NE T02000194 =
2018-08-14 06:54 METAR KAVP 141054Z 00000KT 7SM SCT012 OVC028 19/19 A2989 RMK AO2 LTG DSNT NE AND
                 NW SLP113 T01940194 =
2018-08-14 06:52 METAR KAVP 141052Z 00000KT 8SM SCT012 OVC028 19/19 A2989 RMK AO2 LTG DSNT NE AND
                 NW =
2018-08-14 06:29 METAR KAVP 141029Z 25003KT 7SM BKN012 BKN019 BKN033 19/19 A2989 RMK AO2 LTG DSNT
                 NW T01940189 =
2018-08-14 05:54 METAR KAVP 140954Z 00000KT 8SM FEW018 SCT035 BKN065 19/19 A2988 RMK AO2 SLP112
                 T01890189 =
2018-08-14 05:17 METAR KAVP 140917Z 00000KT 8SM BKN017 OVC070 19/19 A2988 RMK AO2 T01890189 =
2018-08-14 05:08 METAR KAVP 140908Z 00000KT 2SM R04/2800VP6000FT BR FEW010 BKN017 OVC065 19/19
                 A2988 RMK AO2 T01890189 =
2018-08-14 04:57 METAR KAVP 140857Z 00000KT 1 3/4SM R04/5000VP6000FT BR SCT010 BKN070 19/19 A2988
                 =
2018-08-14 04:54 METAR KAVP 140854Z 00000KT 3SM R04/5000VP6000FT BR SCT010 OVC065 19/19 A2988 RMK
                 AO2 SLP110 T01940189 56012 =
2018-08-14 04:03 METAR KAVP 140803Z 00000KT 6SM R04/4500VP6000FT BR SCT027 19/19 A2989 RMK AO2
                 T01940189 =
2018-08-14 03:54 METAR KAVP 140754Z 00000KT 10SM BKN026 19/19 A2989 RMK AO2 SLP114 T01940194 =
2018-08-14 02:54 METAR KAVP 140654Z 00000KT 10SM OVC019 20/19 A2990 RMK AO2 SLP118 T02000194 =
2018-08-14 01:54 METAR KAVP 140554Z 30003KT 10SM OVC017 20/19 A2992 RMK AO2 RAB11E27 SLP123 P0000
                 60076 T02000194 10206 20200 58006 =
2018-08-14 01:33 METAR KAVP 140533Z 33004KT 4SM BR FEW003 BKN016 OVC042 20/19 A2992 RMK AO2
                 RAB11E27 P0000 T02000194 =
2018-08-14 01:29 METAR KAVP 140529Z 33005KT 1SM R04/3500VP6000FT BR SCT006 BKN016 OVC050 20/20
                 A2992 RMK AO2 RAB11E27 P0000 T02000200 =
2018-08-14 01:21 METAR KAVP 140521Z 34005KT 1/2SM R04/2400V5000FT -RA FG SCT009 BKN037 OVC048
                 20/20 A2992 =
2018-08-14 01:11 METAR KAVP 140511Z 34004KT 1 3/4SM R04/2400VP6000FT -RA BR FEW018 OVC037 21/20
                 A2992 RMK AO2 RAB11 P0000 T02060200 =
2018-08-14 00:54 METAR KAVP 140454Z 00000KT 9SM OVC033 21/19 A2992 RMK AO2 SLP126 T02060194
                 402220200 =

Support USWX by starting your Amazon purchase here.